sensor_id;sensor_type;location;lat;lon;timestamp;temperature;humidity
60848;DHT22;46681;47.696;9.140;2023-09-30T00:01:50;20.10;57.50
60848;DHT22;46681;47.696;9.140;2023-09-30T00:04:18;20.00;57.40
60848;DHT22;46681;47.696;9.140;2023-09-30T00:06:43;20.00;57.40
60848;DHT22;46681;47.696;9.140;2023-09-30T00:09:09;20.00;57.50
60848;DHT22;46681;47.696;9.140;2023-09-30T00:11:34;20.00;57.60
60848;DHT22;46681;47.696;9.140;2023-09-30T00:14:00;20.00;57.70
60848;DHT22;46681;47.696;9.140;2023-09-30T00:16:26;19.90;57.70
60848;DHT22;46681;47.696;9.140;2023-09-30T00:18:52;19.90;57.60
60848;DHT22;46681;47.696;9.140;2023-09-30T00:21:18;19.90;57.70
60848;DHT22;46681;47.696;9.140;2023-09-30T00:23:44;19.90;57.60
60848;DHT22;46681;47.696;9.140;2023-09-30T00:26:09;19.80;57.70
60848;DHT22;46681;47.696;9.140;2023-09-30T00:28:37;19.80;57.90
60848;DHT22;46681;47.696;9.140;2023-09-30T00:31:07;19.80;57.80
60848;DHT22;46681;47.696;9.140;2023-09-30T00:33:33;19.80;57.90
60848;DHT22;46681;47.696;9.140;2023-09-30T00:35:58;19.80;58.00
60848;DHT22;46681;47.696;9.140;2023-09-30T00:38:24;19.70;57.90
60848;DHT22;46681;47.696;9.140;2023-09-30T00:40:49;19.70;57.80
60848;DHT22;46681;47.696;9.140;2023-09-30T00:43:19;19.70;57.80
60848;DHT22;46681;47.696;9.140;2023-09-30T00:45:48;19.70;58.00
60848;DHT22;46681;47.696;9.140;2023-09-30T00:48:18;19.70;57.80
60848;DHT22;46681;47.696;9.140;2023-09-30T00:50:44;19.60;58.00
60848;DHT22;46681;47.696;9.140;2023-09-30T00:53:11;19.60;58.00
60848;DHT22;46681;47.696;9.140;2023-09-30T00:55:40;19.60;58.00
60848;DHT22;46681;47.696;9.140;2023-09-30T00:58:06;19.60;57.90
60848;DHT22;46681;47.696;9.140;2023-09-30T01:00:35;19.60;58.10
60848;DHT22;46681;47.696;9.140;2023-09-30T01:03:02;19.60;57.90
60848;DHT22;46681;47.696;9.140;2023-09-30T01:05:39;19.60;58.20
60848;DHT22;46681;47.696;9.140;2023-09-30T01:08:06;19.60;58.10
60848;DHT22;46681;47.696;9.140;2023-09-30T01:10:37;19.50;58.10
60848;DHT22;46681;47.696;9.140;2023-09-30T01:13:03;19.50;58.10
60848;DHT22;46681;47.696;9.140;2023-09-30T01:15:32;19.50;58.20
60848;DHT22;46681;47.696;9.140;2023-09-30T01:18:02;19.50;58.20
60848;DHT22;46681;47.696;9.140;2023-09-30T01:20:28;19.50;58.20
60848;DHT22;46681;47.696;9.140;2023-09-30T01:22:53;19.50;58.30
60848;DHT22;46681;47.696;9.140;2023-09-30T01:25:20;19.50;58.20
60848;DHT22;46681;47.696;9.140;2023-09-30T01:27:46;19.50;58.30
60848;DHT22;46681;47.696;9.140;2023-09-30T01:30:13;19.50;58.40
60848;DHT22;46681;47.696;9.140;2023-09-30T01:32:40;19.50;58.40
60848;DHT22;46681;47.696;9.140;2023-09-30T01:35:09;19.50;58.40
60848;DHT22;46681;47.696;9.140;2023-09-30T01:37:36;19.50;58.40
60848;DHT22;46681;47.696;9.140;2023-09-30T01:40:03;19.40;58.40
60848;DHT22;46681;47.696;9.140;2023-09-30T01:42:31;19.40;58.30
60848;DHT22;46681;47.696;9.140;2023-09-30T01:44:58;19.40;58.60
60848;DHT22;46681;47.696;9.140;2023-09-30T01:47:24;19.40;58.50
60848;DHT22;46681;47.696;9.140;2023-09-30T01:49:50;19.40;58.40
60848;DHT22;46681;47.696;9.140;2023-09-30T01:52:17;19.40;58.60
60848;DHT22;46681;47.696;9.140;2023-09-30T01:54:43;19.40;58.70
60848;DHT22;46681;47.696;9.140;2023-09-30T01:57:10;19.40;58.60
60848;DHT22;46681;47.696;9.140;2023-09-30T01:59:36;19.30;58.70
60848;DHT22;46681;47.696;9.140;2023-09-30T02:02:02;19.30;58.70
60848;DHT22;46681;47.696;9.140;2023-09-30T02:04:28;19.30;58.70
60848;DHT22;46681;47.696;9.140;2023-09-30T02:06:55;19.30;58.60
60848;DHT22;46681;47.696;9.140;2023-09-30T02:09:21;19.30;58.60
60848;DHT22;46681;47.696;9.140;2023-09-30T02:11:47;19.30;58.80
60848;DHT22;46681;47.696;9.140;2023-09-30T02:14:15;19.30;58.80
60848;DHT22;46681;47.696;9.140;2023-09-30T02:16:41;19.20;58.80
60848;DHT22;46681;47.696;9.140;2023-09-30T02:19:07;19.30;58.80
60848;DHT22;46681;47.696;9.140;2023-09-30T02:21:34;19.20;58.90
60848;DHT22;46681;47.696;9.140;2023-09-30T02:24:02;19.20;58.80
60848;DHT22;46681;47.696;9.140;2023-09-30T02:26:28;19.20;58.90
60848;DHT22;46681;47.696;9.140;2023-09-30T02:28:53;19.20;58.90
60848;DHT22;46681;47.696;9.140;2023-09-30T02:31:19;19.20;58.90
60848;DHT22;46681;47.696;9.140;2023-09-30T02:33:47;19.20;58.80
60848;DHT22;46681;47.696;9.140;2023-09-30T02:36:15;19.10;58.80
60848;DHT22;46681;47.696;9.140;2023-09-30T02:38:41;19.10;58.90
60848;DHT22;46681;47.696;9.140;2023-09-30T02:41:08;19.10;58.90
60848;DHT22;46681;47.696;9.140;2023-09-30T02:43:34;19.10;59.00
60848;DHT22;46681;47.696;9.140;2023-09-30T02:46:00;19.10;59.00
60848;DHT22;46681;47.696;9.140;2023-09-30T02:48:26;19.10;59.00
60848;DHT22;46681;47.696;9.140;2023-09-30T02:50:52;19.10;59.00
60848;DHT22;46681;47.696;9.140;2023-09-30T02:53:18;19.10;59.00
60848;DHT22;46681;47.696;9.140;2023-09-30T02:55:43;19.10;59.00
60848;DHT22;46681;47.696;9.140;2023-09-30T02:58:09;19.00;59.00
60848;DHT22;46681;47.696;9.140;2023-09-30T03:00:35;19.00;59.10
60848;DHT22;46681;47.696;9.140;2023-09-30T03:03:01;19.00;59.10
60848;DHT22;46681;47.696;9.140;2023-09-30T03:05:27;19.00;59.00
60848;DHT22;46681;47.696;9.140;2023-09-30T03:07:54;19.00;59.10
60848;DHT22;46681;47.696;9.140;2023-09-30T03:10:20;19.00;59.00
60848;DHT22;46681;47.696;9.140;2023-09-30T03:12:57;19.00;59.00
60848;DHT22;46681;47.696;9.140;2023-09-30T03:15:24;19.00;59.10
60848;DHT22;46681;47.696;9.140;2023-09-30T03:17:50;19.00;59.10
60848;DHT22;46681;47.696;9.140;2023-09-30T03:20:18;19.00;59.10
60848;DHT22;46681;47.696;9.140;2023-09-30T03:22:44;18.90;59.10
60848;DHT22;46681;47.696;9.140;2023-09-30T03:25:11;18.90;59.20
60848;DHT22;46681;47.696;9.140;2023-09-30T03:27:38;18.90;59.10
60848;DHT22;46681;47.696;9.140;2023-09-30T03:30:07;18.90;59.20
60848;DHT22;46681;47.696;9.140;2023-09-30T03:32:34;18.90;59.20
60848;DHT22;46681;47.696;9.140;2023-09-30T03:35:00;18.90;59.20
60848;DHT22;46681;47.696;9.140;2023-09-30T03:37:27;18.90;59.30
60848;DHT22;46681;47.696;9.140;2023-09-30T03:39:56;18.90;59.40
60848;DHT22;46681;47.696;9.140;2023-09-30T03:42:24;18.90;59.20
60848;DHT22;46681;47.696;9.140;2023-09-30T03:44:56;18.80;59.40
60848;DHT22;46681;47.696;9.140;2023-09-30T03:47:22;18.80;59.10
60848;DHT22;46681;47.696;9.140;2023-09-30T03:49:47;18.80;59.30
60848;DHT22;46681;47.696;9.140;2023-09-30T03:52:18;18.80;59.40
60848;DHT22;46681;47.696;9.140;2023-09-30T03:54:44;18.80;59.50
60848;DHT22;46681;47.696;9.140;2023-09-30T03:57:10;18.80;59.50
60848;DHT22;46681;47.696;9.140;2023-09-30T03:59:36;18.80;59.40
60848;DHT22;46681;47.696;9.140;2023-09-30T04:02:07;18.80;59.50
60848;DHT22;46681;47.696;9.140;2023-09-30T04:04:36;18.80;59.40
60848;DHT22;46681;47.696;9.140;2023-09-30T04:07:01;18.80;59.50
60848;DHT22;46681;47.696;9.140;2023-09-30T04:09:27;18.80;59.60
60848;DHT22;46681;47.696;9.140;2023-09-30T04:11:53;18.70;59.50
60848;DHT22;46681;47.696;9.140;2023-09-30T04:14:18;18.80;59.50
60848;DHT22;46681;47.696;9.140;2023-09-30T04:16:43;18.70;59.50
60848;DHT22;46681;47.696;9.140;2023-09-30T04:19:17;18.70;59.60
60848;DHT22;46681;47.696;9.140;2023-09-30T04:21:43;18.80;59.60
60848;DHT22;46681;47.696;9.140;2023-09-30T04:24:09;18.70;59.60
60848;DHT22;46681;47.696;9.140;2023-09-30T04:26:36;18.70;59.60
60848;DHT22;46681;47.696;9.140;2023-09-30T04:29:01;18.70;59.70
60848;DHT22;46681;47.696;9.140;2023-09-30T04:31:28;18.70;59.70
60848;DHT22;46681;47.696;9.140;2023-09-30T04:33:54;18.70;59.70
60848;DHT22;46681;47.696;9.140;2023-09-30T04:36:20;18.70;59.70
60848;DHT22;46681;47.696;9.140;2023-09-30T04:38:50;18.70;59.80
60848;DHT22;46681;47.696;9.140;2023-09-30T04:41:17;18.70;59.70
60848;DHT22;46681;47.696;9.140;2023-09-30T04:43:43;18.70;59.80
60848;DHT22;46681;47.696;9.140;2023-09-30T04:46:10;18.70;59.80
60848;DHT22;46681;47.696;9.140;2023-09-30T04:48:36;18.70;60.40
60848;DHT22;46681;47.696;9.140;2023-09-30T04:51:13;18.70;59.80
60848;DHT22;46681;47.696;9.140;2023-09-30T04:53:42;18.60;59.90
60848;DHT22;46681;47.696;9.140;2023-09-30T04:56:12;18.60;59.80
60848;DHT22;46681;47.696;9.140;2023-09-30T04:58:38;18.60;60.00
60848;DHT22;46681;47.696;9.140;2023-09-30T05:01:11;18.60;59.90
60848;DHT22;46681;47.696;9.140;2023-09-30T05:03:42;18.60;60.00
60848;DHT22;46681;47.696;9.140;2023-09-30T05:06:07;18.60;59.90
60848;DHT22;46681;47.696;9.140;2023-09-30T05:08:37;18.60;60.10
60848;DHT22;46681;47.696;9.140;2023-09-30T05:11:03;18.60;60.10
60848;DHT22;46681;47.696;9.140;2023-09-30T05:13:34;18.60;60.10
60848;DHT22;46681;47.696;9.140;2023-09-30T05:16:01;18.60;60.10
60848;DHT22;46681;47.696;9.140;2023-09-30T05:18:27;18.60;60.70
60848;DHT22;46681;47.696;9.140;2023-09-30T05:20:55;18.60;60.20
60848;DHT22;46681;47.696;9.140;2023-09-30T05:23:21;18.60;60.20
60848;DHT22;46681;47.696;9.140;2023-09-30T05:25:46;18.50;60.20
60848;DHT22;46681;47.696;9.140;2023-09-30T05:28:13;18.60;60.10
60848;DHT22;46681;47.696;9.140;2023-09-30T05:30:42;18.50;60.20
60848;DHT22;46681;47.696;9.140;2023-09-30T05:33:09;18.50;60.10
60848;DHT22;46681;47.696;9.140;2023-09-30T05:35:37;18.50;60.30
60848;DHT22;46681;47.696;9.140;2023-09-30T05:38:03;18.50;60.20
60848;DHT22;46681;47.696;9.140;2023-09-30T05:40:37;18.50;60.20
60848;DHT22;46681;47.696;9.140;2023-09-30T05:43:05;18.50;60.20
60848;DHT22;46681;47.696;9.140;2023-09-30T05:45:32;18.60;60.40
60848;DHT22;46681;47.696;9.140;2023-09-30T05:48:02;18.50;60.30
60848;DHT22;46681;47.696;9.140;2023-09-30T05:50:28;18.50;60.40
60848;DHT22;46681;47.696;9.140;2023-09-30T05:52:54;18.50;60.30
60848;DHT22;46681;47.696;9.140;2023-09-30T05:55:20;18.50;60.30
60848;DHT22;46681;47.696;9.140;2023-09-30T05:57:51;18.50;60.40
60848;DHT22;46681;47.696;9.140;2023-09-30T06:00:24;18.50;60.40
60848;DHT22;46681;47.696;9.140;2023-09-30T06:02:51;18.50;60.60
60848;DHT22;46681;47.696;9.140;2023-09-30T06:05:17;18.50;60.50
60848;DHT22;46681;47.696;9.140;2023-09-30T06:07:43;18.50;60.30
60848;DHT22;46681;47.696;9.140;2023-09-30T06:10:09;18.50;60.40
60848;DHT22;46681;47.696;9.140;2023-09-30T06:12:36;18.50;60.40
60848;DHT22;46681;47.696;9.140;2023-09-30T06:15:02;18.50;60.40
60848;DHT22;46681;47.696;9.140;2023-09-30T06:17:28;18.50;60.30
60848;DHT22;46681;47.696;9.140;2023-09-30T06:19:55;18.50;60.20
60848;DHT22;46681;47.696;9.140;2023-09-30T06:22:23;18.50;60.40
60848;DHT22;46681;47.696;9.140;2023-09-30T06:24:50;18.50;60.30
60848;DHT22;46681;47.696;9.140;2023-09-30T06:27:16;18.50;60.20
60848;DHT22;46681;47.696;9.140;2023-09-30T06:29:45;18.50;60.30
60848;DHT22;46681;47.696;9.140;2023-09-30T06:32:13;18.60;60.40
60848;DHT22;46681;47.696;9.140;2023-09-30T06:34:38;18.60;66.30
60848;DHT22;46681;47.696;9.140;2023-09-30T06:37:09;18.70;69.70
60848;DHT22;46681;47.696;9.140;2023-09-30T06:39:35;18.80;67.60
60848;DHT22;46681;47.696;9.140;2023-09-30T06:42:00;18.80;66.00
60848;DHT22;46681;47.696;9.140;2023-09-30T06:44:34;18.80;65.10
60848;DHT22;46681;47.696;9.140;2023-09-30T06:47:00;18.80;65.70
60848;DHT22;46681;47.696;9.140;2023-09-30T06:49:25;18.80;64.80
60848;DHT22;46681;47.696;9.140;2023-09-30T06:51:51;18.80;65.00
60848;DHT22;46681;47.696;9.140;2023-09-30T06:54:22;18.80;64.30
60848;DHT22;46681;47.696;9.140;2023-09-30T06:56:53;18.80;64.00
60848;DHT22;46681;47.696;9.140;2023-09-30T06:59:25;18.80;63.80
60848;DHT22;46681;47.696;9.140;2023-09-30T07:01:54;18.80;63.30
60848;DHT22;46681;47.696;9.140;2023-09-30T07:04:22;18.80;63.20
60848;DHT22;46681;47.696;9.140;2023-09-30T07:06:47;18.80;63.10
60848;DHT22;46681;47.696;9.140;2023-09-30T07:09:30;18.80;63.30
60848;DHT22;46681;47.696;9.140;2023-09-30T07:11:56;18.90;63.10
60848;DHT22;46681;47.696;9.140;2023-09-30T07:14:22;18.90;64.10
60848;DHT22;46681;47.696;9.140;2023-09-30T07:16:48;19.00;64.10
60848;DHT22;46681;47.696;9.140;2023-09-30T07:19:16;19.00;63.40
60848;DHT22;46681;47.696;9.140;2023-09-30T07:21:41;19.00;63.10
60848;DHT22;46681;47.696;9.140;2023-09-30T07:24:10;19.00;62.70
60848;DHT22;46681;47.696;9.140;2023-09-30T07:26:37;19.10;62.50
60848;DHT22;46681;47.696;9.140;2023-09-30T07:29:22;19.10;62.30
60848;DHT22;46681;47.696;9.140;2023-09-30T07:31:55;19.10;62.00
60848;DHT22;46681;47.696;9.140;2023-09-30T07:34:27;19.20;63.40
60848;DHT22;46681;47.696;9.140;2023-09-30T07:36:52;19.30;65.50
60848;DHT22;46681;47.696;9.140;2023-09-30T07:39:19;19.40;66.70
60848;DHT22;46681;47.696;9.140;2023-09-30T07:41:46;19.50;66.70
60848;DHT22;46681;47.696;9.140;2023-09-30T07:44:14;19.50;66.40
60848;DHT22;46681;47.696;9.140;2023-09-30T07:46:57;19.60;66.20
60848;DHT22;46681;47.696;9.140;2023-09-30T07:49:23;19.70;65.90
60848;DHT22;46681;47.696;9.140;2023-09-30T07:51:49;19.70;65.60
60848;DHT22;46681;47.696;9.140;2023-09-30T07:54:25;19.70;65.50
60848;DHT22;46681;47.696;9.140;2023-09-30T07:56:54;19.80;65.20
60848;DHT22;46681;47.696;9.140;2023-09-30T07:59:31;19.80;65.10
60848;DHT22;46681;47.696;9.140;2023-09-30T08:02:02;19.80;64.80
60848;DHT22;46681;47.696;9.140;2023-09-30T08:04:33;20.00;64.50
60848;DHT22;46681;47.696;9.140;2023-09-30T08:07:08;20.00;64.00
60848;DHT22;46681;47.696;9.140;2023-09-30T08:09:50;20.10;63.80
60848;DHT22;46681;47.696;9.140;2023-09-30T08:12:17;20.20;63.40
60848;DHT22;46681;47.696;9.140;2023-09-30T08:14:42;20.30;63.40
60848;DHT22;46681;47.696;9.140;2023-09-30T08:17:22;20.40;62.90
60848;DHT22;46681;47.696;9.140;2023-09-30T08:19:50;20.60;62.20
60848;DHT22;46681;47.696;9.140;2023-09-30T08:22:16;20.80;61.10
60848;DHT22;46681;47.696;9.140;2023-09-30T08:24:55;20.90;60.40
60848;DHT22;46681;47.696;9.140;2023-09-30T08:27:44;20.90;59.90
60848;DHT22;46681;47.696;9.140;2023-09-30T08:30:15;21.00;59.80
60848;DHT22;46681;47.696;9.140;2023-09-30T08:32:42;21.00;59.60
60848;DHT22;46681;47.696;9.140;2023-09-30T08:35:19;21.00;59.30
60848;DHT22;46681;47.696;9.140;2023-09-30T08:37:45;21.10;59.40
60848;DHT22;46681;47.696;9.140;2023-09-30T08:40:28;21.20;58.70
60848;DHT22;46681;47.696;9.140;2023-09-30T08:43:05;21.30;58.00
60848;DHT22;46681;47.696;9.140;2023-09-30T08:45:47;21.40;57.20
60848;DHT22;46681;47.696;9.140;2023-09-30T08:48:28;21.40;57.00
60848;DHT22;46681;47.696;9.140;2023-09-30T08:50:55;21.50;56.80
60848;DHT22;46681;47.696;9.140;2023-09-30T08:53:20;21.60;56.60
60848;DHT22;46681;47.696;9.140;2023-09-30T08:55:56;21.70;56.50
60848;DHT22;46681;47.696;9.140;2023-09-30T08:58:36;21.90;56.00
60848;DHT22;46681;47.696;9.140;2023-09-30T09:04:01;22.20;55.60
60848;DHT22;46681;47.696;9.140;2023-09-30T09:06:30;22.30;55.10
60848;DHT22;46681;47.696;9.140;2023-09-30T09:12:34;22.60;54.80
60848;DHT22;46681;47.696;9.140;2023-09-30T09:15:19;22.80;54.50
60848;DHT22;46681;47.696;9.140;2023-09-30T09:17:55;23.00;54.10
60848;DHT22;46681;47.696;9.140;2023-09-30T09:20:32;23.10;53.70
60848;DHT22;46681;47.696;9.140;2023-09-30T09:23:02;23.10;53.50
60848;DHT22;46681;47.696;9.140;2023-09-30T09:25:40;23.10;53.40
60848;DHT22;46681;47.696;9.140;2023-09-30T09:28:17;23.20;53.40
60848;DHT22;46681;47.696;9.140;2023-09-30T09:33:58;23.30;53.00
60848;DHT22;46681;47.696;9.140;2023-09-30T09:36:43;23.40;53.00
60848;DHT22;46681;47.696;9.140;2023-09-30T09:39:33;23.30;52.90
60848;DHT22;46681;47.696;9.140;2023-09-30T09:42:29;23.40;52.90
60848;DHT22;46681;47.696;9.140;2023-09-30T09:45:10;23.30;52.90
60848;DHT22;46681;47.696;9.140;2023-09-30T09:48:11;23.10;52.50
60848;DHT22;46681;47.696;9.140;2023-09-30T09:50:59;23.10;52.70
60848;DHT22;46681;47.696;9.140;2023-09-30T09:53:33;23.20;52.40
60848;DHT22;46681;47.696;9.140;2023-09-30T09:56:01;23.50;52.10
60848;DHT22;46681;47.696;9.140;2023-09-30T09:58:44;23.70;51.80
60848;DHT22;46681;47.696;9.140;2023-09-30T10:01:39;24.00;51.40
60848;DHT22;46681;47.696;9.140;2023-09-30T10:07:36;24.60;50.30
60848;DHT22;46681;47.696;9.140;2023-09-30T10:10:23;24.90;50.00
60848;DHT22;46681;47.696;9.140;2023-09-30T10:12:58;25.10;49.50
60848;DHT22;46681;47.696;9.140;2023-09-30T10:18:10;25.50;48.90
60848;DHT22;46681;47.696;9.140;2023-09-30T10:24:58;25.80;48.30
60848;DHT22;46681;47.696;9.140;2023-09-30T10:27:47;26.00;48.00
60848;DHT22;46681;47.696;9.140;2023-09-30T10:30:20;26.20;47.80
60848;DHT22;46681;47.696;9.140;2023-09-30T10:49:55;27.30;46.40
60848;DHT22;46681;47.696;9.140;2023-09-30T10:52:31;27.40;46.30
60848;DHT22;46681;47.696;9.140;2023-09-30T11:01:20;27.90;45.80
60848;DHT22;46681;47.696;9.140;2023-09-30T11:03:58;27.80;45.70
60848;DHT22;46681;47.696;9.140;2023-09-30T11:06:59;28.00;45.40
60848;DHT22;46681;47.696;9.140;2023-09-30T11:10:02;28.00;45.40
60848;DHT22;46681;47.696;9.140;2023-09-30T11:13:15;28.00;45.20
60848;DHT22;46681;47.696;9.140;2023-09-30T11:16:03;28.40;45.00
60848;DHT22;46681;47.696;9.140;2023-09-30T11:19:11;28.50;44.80
60848;DHT22;46681;47.696;9.140;2023-09-30T11:21:52;28.60;44.70
60848;DHT22;46681;47.696;9.140;2023-09-30T11:27:29;28.00;45.00
60848;DHT22;46681;47.696;9.140;2023-09-30T11:33:30;27.40;45.10
60848;DHT22;46681;47.696;9.140;2023-09-30T11:36:21;27.90;44.80
60848;DHT22;46681;47.696;9.140;2023-09-30T11:39:32;28.00;44.80
60848;DHT22;46681;47.696;9.140;2023-09-30T11:45:21;28.50;44.50
60848;DHT22;46681;47.696;9.140;2023-09-30T11:57:51;29.40;43.70
60848;DHT22;46681;47.696;9.140;2023-09-30T12:10:11;29.60;43.40
60848;DHT22;46681;47.696;9.140;2023-09-30T12:15:44;28.80;42.50
60848;DHT22;46681;47.696;9.140;2023-09-30T12:33:30;29.60;43.20
60848;DHT22;46681;47.696;9.140;2023-09-30T12:43:01;29.70;42.80
60848;DHT22;46681;47.696;9.140;2023-09-30T12:45:51;29.60;43.10
60848;DHT22;46681;47.696;9.140;2023-09-30T12:54:24;29.70;43.30
60848;DHT22;46681;47.696;9.140;2023-09-30T12:57:25;29.80;43.00
60848;DHT22;46681;47.696;9.140;2023-09-30T12:59:51;29.80;43.00
60848;DHT22;46681;47.696;9.140;2023-09-30T13:02:35;29.60;43.10
60848;DHT22;46681;47.696;9.140;2023-09-30T13:17:49;29.30;43.50
60848;DHT22;46681;47.696;9.140;2023-09-30T13:20:45;29.10;43.50
60848;DHT22;46681;47.696;9.140;2023-09-30T13:23:16;29.00;43.60
60848;DHT22;46681;47.696;9.140;2023-09-30T13:25:58;28.80;43.80
60848;DHT22;46681;47.696;9.140;2023-09-30T13:37:58;28.70;42.70
60848;DHT22;46681;47.696;9.140;2023-09-30T13:40:31;28.80;44.30
60848;DHT22;46681;47.696;9.140;2023-09-30T13:43:20;28.90;44.10
60848;DHT22;46681;47.696;9.140;2023-09-30T13:45:46;29.00;43.80
60848;DHT22;46681;47.696;9.140;2023-09-30T13:48:22;29.10;43.70
60848;DHT22;46681;47.696;9.140;2023-09-30T13:50:49;29.20;43.70
60848;DHT22;46681;47.696;9.140;2023-09-30T13:53:18;29.30;43.70
60848;DHT22;46681;47.696;9.140;2023-09-30T13:55:59;28.90;43.50
60848;DHT22;46681;47.696;9.140;2023-09-30T13:58:50;28.60;43.80
60848;DHT22;46681;47.696;9.140;2023-09-30T14:01:30;28.50;44.10
60848;DHT22;46681;47.696;9.140;2023-09-30T14:03:58;28.50;44.20
60848;DHT22;46681;47.696;9.140;2023-09-30T14:06:42;28.50;44.40
60848;DHT22;46681;47.696;9.140;2023-09-30T14:09:19;28.50;44.40
60848;DHT22;46681;47.696;9.140;2023-09-30T14:11:50;28.40;44.30
60848;DHT22;46681;47.696;9.140;2023-09-30T14:14:23;28.20;44.40
60848;DHT22;46681;47.696;9.140;2023-09-30T14:17:01;28.10;44.60
60848;DHT22;46681;47.696;9.140;2023-09-30T14:22:32;28.10;45.20
60848;DHT22;46681;47.696;9.140;2023-09-30T14:28:13;28.10;44.80
60848;DHT22;46681;47.696;9.140;2023-09-30T14:30:44;28.10;44.80
60848;DHT22;46681;47.696;9.140;2023-09-30T14:33:19;28.00;45.00
60848;DHT22;46681;47.696;9.140;2023-09-30T14:36:03;28.00;44.80
60848;DHT22;46681;47.696;9.140;2023-09-30T14:38:57;28.00;45.00
60848;DHT22;46681;47.696;9.140;2023-09-30T14:41:33;27.90;45.40
60848;DHT22;46681;47.696;9.140;2023-09-30T14:44:06;27.80;45.00
60848;DHT22;46681;47.696;9.140;2023-09-30T14:46:54;27.70;44.90
60848;DHT22;46681;47.696;9.140;2023-09-30T14:49:23;27.60;45.40
60848;DHT22;46681;47.696;9.140;2023-09-30T14:51:58;27.60;45.30
60848;DHT22;46681;47.696;9.140;2023-09-30T14:54:33;27.50;45.30
60848;DHT22;46681;47.696;9.140;2023-09-30T14:57:01;27.50;45.30
60848;DHT22;46681;47.696;9.140;2023-09-30T14:59:48;27.40;45.10
60848;DHT22;46681;47.696;9.140;2023-09-30T15:02:22;27.30;45.30
60848;DHT22;46681;47.696;9.140;2023-09-30T15:04:48;27.30;45.40
60848;DHT22;46681;47.696;9.140;2023-09-30T15:07:24;27.20;45.40
60848;DHT22;46681;47.696;9.140;2023-09-30T15:09:53;27.20;45.30
60848;DHT22;46681;47.696;9.140;2023-09-30T15:12:20;27.10;45.00
60848;DHT22;46681;47.696;9.140;2023-09-30T15:14:48;27.00;45.10
60848;DHT22;46681;47.696;9.140;2023-09-30T15:17:14;27.00;45.30
60848;DHT22;46681;47.696;9.140;2023-09-30T15:20:01;27.00;45.50
60848;DHT22;46681;47.696;9.140;2023-09-30T15:22:32;26.80;45.40
60848;DHT22;46681;47.696;9.140;2023-09-30T15:27:50;26.80;45.60
60848;DHT22;46681;47.696;9.140;2023-09-30T15:30:53;26.60;45.60
60848;DHT22;46681;47.696;9.140;2023-09-30T15:33:50;26.60;45.50
60848;DHT22;46681;47.696;9.140;2023-09-30T15:36:26;26.50;45.70
60848;DHT22;46681;47.696;9.140;2023-09-30T15:38:53;26.50;45.10
60848;DHT22;46681;47.696;9.140;2023-09-30T15:41:35;26.40;45.60
60848;DHT22;46681;47.696;9.140;2023-09-30T15:44:19;26.30;45.80
60848;DHT22;46681;47.696;9.140;2023-09-30T15:46:52;26.30;46.00
60848;DHT22;46681;47.696;9.140;2023-09-30T15:49:31;26.20;46.30
60848;DHT22;46681;47.696;9.140;2023-09-30T15:54:51;26.10;46.30
60848;DHT22;46681;47.696;9.140;2023-09-30T15:57:30;26.00;46.40
60848;DHT22;46681;47.696;9.140;2023-09-30T15:59:58;25.90;46.40
60848;DHT22;46681;47.696;9.140;2023-09-30T16:02:47;25.90;46.70
60848;DHT22;46681;47.696;9.140;2023-09-30T16:05:38;25.80;46.60
60848;DHT22;46681;47.696;9.140;2023-09-30T16:08:31;25.70;46.90
60848;DHT22;46681;47.696;9.140;2023-09-30T16:11:13;25.70;46.90
60848;DHT22;46681;47.696;9.140;2023-09-30T16:13:59;25.60;47.20
60848;DHT22;46681;47.696;9.140;2023-09-30T16:16:29;25.50;47.10
60848;DHT22;46681;47.696;9.140;2023-09-30T16:22:00;25.40;47.40
60848;DHT22;46681;47.696;9.140;2023-09-30T16:24:30;25.30;47.50
60848;DHT22;46681;47.696;9.140;2023-09-30T16:27:04;25.30;47.80
60848;DHT22;46681;47.696;9.140;2023-09-30T16:29:35;25.10;47.70
60848;DHT22;46681;47.696;9.140;2023-09-30T16:32:00;25.10;47.90
60848;DHT22;46681;47.696;9.140;2023-09-30T16:34:44;25.10;48.10
60848;DHT22;46681;47.696;9.140;2023-09-30T16:37:13;25.00;48.30
60848;DHT22;46681;47.696;9.140;2023-09-30T16:39:48;24.90;48.30
60848;DHT22;46681;47.696;9.140;2023-09-30T16:42:19;24.80;48.50
60848;DHT22;46681;47.696;9.140;2023-09-30T16:44:48;24.80;48.70
60848;DHT22;46681;47.696;9.140;2023-09-30T16:47:28;24.70;49.00
60848;DHT22;46681;47.696;9.140;2023-09-30T16:49:55;24.70;49.10
60848;DHT22;46681;47.696;9.140;2023-09-30T16:52:23;24.60;49.20
60848;DHT22;46681;47.696;9.140;2023-09-30T16:54:56;24.50;49.40
60848;DHT22;46681;47.696;9.140;2023-09-30T16:57:33;24.50;49.50
60848;DHT22;46681;47.696;9.140;2023-09-30T17:00:08;24.40;49.50
60848;DHT22;46681;47.696;9.140;2023-09-30T17:02:36;24.30;49.70
60848;DHT22;46681;47.696;9.140;2023-09-30T17:05:04;24.20;49.70
60848;DHT22;46681;47.696;9.140;2023-09-30T17:07:31;24.20;49.70
60848;DHT22;46681;47.696;9.140;2023-09-30T17:10:00;24.10;49.90
60848;DHT22;46681;47.696;9.140;2023-09-30T17:12:47;24.00;50.10
60848;DHT22;46681;47.696;9.140;2023-09-30T17:15:13;23.90;50.20
60848;DHT22;46681;47.696;9.140;2023-09-30T17:17:59;23.80;50.20
60848;DHT22;46681;47.696;9.140;2023-09-30T17:23:39;23.70;50.30
60848;DHT22;46681;47.696;9.140;2023-09-30T17:26:06;23.60;50.40
60848;DHT22;46681;47.696;9.140;2023-09-30T17:28:38;23.50;50.50
60848;DHT22;46681;47.696;9.140;2023-09-30T17:31:19;23.40;50.50
60848;DHT22;46681;47.696;9.140;2023-09-30T17:33:51;23.30;50.70
60848;DHT22;46681;47.696;9.140;2023-09-30T17:36:24;23.20;50.80
60848;DHT22;46681;47.696;9.140;2023-09-30T17:38:55;23.20;50.90
60848;DHT22;46681;47.696;9.140;2023-09-30T17:41:24;23.10;51.10
60848;DHT22;46681;47.696;9.140;2023-09-30T17:44:13;23.00;51.20
60848;DHT22;46681;47.696;9.140;2023-09-30T17:46:42;22.90;51.30
60848;DHT22;46681;47.696;9.140;2023-09-30T17:49:12;22.80;51.40
60848;DHT22;46681;47.696;9.140;2023-09-30T17:51:44;22.80;51.50
60848;DHT22;46681;47.696;9.140;2023-09-30T17:54:17;22.70;51.70
60848;DHT22;46681;47.696;9.140;2023-09-30T17:56:44;22.60;51.70
60848;DHT22;46681;47.696;9.140;2023-09-30T17:59:09;22.50;51.90
60848;DHT22;46681;47.696;9.140;2023-09-30T18:01:36;22.50;52.00
60848;DHT22;46681;47.696;9.140;2023-09-30T18:04:07;22.40;52.10
60848;DHT22;46681;47.696;9.140;2023-09-30T18:06:32;22.30;52.20
60848;DHT22;46681;47.696;9.140;2023-09-30T18:08:58;22.20;52.40
60848;DHT22;46681;47.696;9.140;2023-09-30T18:11:24;22.20;52.30
60848;DHT22;46681;47.696;9.140;2023-09-30T18:13:49;22.10;52.50
60848;DHT22;46681;47.696;9.140;2023-09-30T18:16:19;22.10;52.50
60848;DHT22;46681;47.696;9.140;2023-09-30T18:18:51;22.00;52.40
60848;DHT22;46681;47.696;9.140;2023-09-30T18:21:20;22.00;52.60
60848;DHT22;46681;47.696;9.140;2023-09-30T18:23:58;21.90;52.80